Terminal Aerodrome Forecast
Issued by NWS Twin Cities, MN

Home | Current Version | Previous Version | Text Only | Print | Product List | Glossary Off
Versions: 1 2 3 4 5 6 7 8 9 10 11 12

000
FTUS43 KMPX 302341
TAFEAU
TAF
KEAU 302341Z 0100/0124 08004KT P6SM SCT250
     FM010600 12002KT P6SM FEW100
     FM011100 18006KT P6SM BKN100
     FM011900 20007KT P6SM VCSH SCT050 BKN080=

USA.gov is the U.S. government's official web portal to all federal, state and local government web resources and services.